sensor_id;sensor_type;location;lat;lon;timestamp;P1;durP1;ratioP1;P2;durP2;ratioP2
18190;SDS011;47004;51.366;12.348;2023-02-28T00:00:31;2.97;;;2.03;;
18190;SDS011;47004;51.366;12.348;2023-02-28T00:02:33;4.00;;;2.30;;
18190;SDS011;47004;51.366;12.348;2023-02-28T00:04:36;3.40;;;2.10;;
18190;SDS011;47004;51.366;12.348;2023-02-28T00:06:38;2.93;;;1.80;;
18190;SDS011;47004;51.366;12.348;2023-02-28T00:08:40;4.17;;;2.00;;
18190;SDS011;47004;51.366;12.348;2023-02-28T00:10:42;3.30;;;1.90;;
18190;SDS011;47004;51.366;12.348;2023-02-28T00:12:44;4.03;;;1.90;;
18190;SDS011;47004;51.366;12.348;2023-02-28T00:14:46;3.83;;;1.90;;
18190;SDS011;47004;51.366;12.348;2023-02-28T00:16:48;6.53;;;2.07;;
18190;SDS011;47004;51.366;12.348;2023-02-28T00:18:50;3.77;;;2.10;;
18190;SDS011;47004;51.366;12.348;2023-02-28T00:20:53;3.20;;;1.77;;
18190;SDS011;47004;51.366;12.348;2023-02-28T00:22:55;4.73;;;1.77;;
18190;SDS011;47004;51.366;12.348;2023-02-28T00:24:57;4.77;;;2.47;;
18190;SDS011;47004;51.366;12.348;2023-02-28T00:26:59;4.23;;;2.10;;
18190;SDS011;47004;51.366;12.348;2023-02-28T00:29:01;3.23;;;2.17;;
18190;SDS011;47004;51.366;12.348;2023-02-28T00:31:03;3.37;;;2.20;;
18190;SDS011;47004;51.366;12.348;2023-02-28T00:33:05;3.13;;;1.97;;
18190;SDS011;47004;51.366;12.348;2023-02-28T00:35:07;3.97;;;1.90;;
18190;SDS011;47004;51.366;12.348;2023-02-28T00:37:11;6.07;;;2.20;;
18190;SDS011;47004;51.366;12.348;2023-02-28T00:39:13;4.93;;;2.50;;
18190;SDS011;47004;51.366;12.348;2023-02-28T00:41:15;4.30;;;2.27;;
18190;SDS011;47004;51.366;12.348;2023-02-28T00:43:17;5.67;;;2.50;;
18190;SDS011;47004;51.366;12.348;2023-02-28T00:45:19;4.57;;;2.10;;
18190;SDS011;47004;51.366;12.348;2023-02-28T00:47:21;3.97;;;1.90;;
18190;SDS011;47004;51.366;12.348;2023-02-28T00:49:23;3.97;;;2.10;;
18190;SDS011;47004;51.366;12.348;2023-02-28T00:51:26;3.30;;;2.00;;
18190;SDS011;47004;51.366;12.348;2023-02-28T00:53:30;3.80;;;2.00;;
18190;SDS011;47004;51.366;12.348;2023-02-28T00:55:32;4.27;;;2.20;;
18190;SDS011;47004;51.366;12.348;2023-02-28T00:57:34;5.57;;;2.30;;
18190;SDS011;47004;51.366;12.348;2023-02-28T00:59:36;3.60;;;2.20;;
18190;SDS011;47004;51.366;12.348;2023-02-28T01:01:38;5.03;;;2.37;;
18190;SDS011;47004;51.366;12.348;2023-02-28T01:03:42;4.37;;;2.17;;
18190;SDS011;47004;51.366;12.348;2023-02-28T01:05:44;4.20;;;1.80;;
18190;SDS011;47004;51.366;12.348;2023-02-28T01:07:46;3.33;;;2.03;;
18190;SDS011;47004;51.366;12.348;2023-02-28T01:09:49;3.40;;;2.07;;
18190;SDS011;47004;51.366;12.348;2023-02-28T01:11:51;4.67;;;2.17;;
18190;SDS011;47004;51.366;12.348;2023-02-28T01:13:53;6.10;;;2.13;;
18190;SDS011;47004;51.366;12.348;2023-02-28T01:15:55;4.50;;;2.33;;
18190;SDS011;47004;51.366;12.348;2023-02-28T01:17:57;4.10;;;1.90;;
18190;SDS011;47004;51.366;12.348;2023-02-28T01:19:59;3.97;;;1.93;;
18190;SDS011;47004;51.366;12.348;2023-02-28T01:22:02;5.20;;;2.23;;
18190;SDS011;47004;51.366;12.348;2023-02-28T01:24:04;4.10;;;2.03;;
18190;SDS011;47004;51.366;12.348;2023-02-28T01:26:10;3.87;;;2.20;;
18190;SDS011;47004;51.366;12.348;2023-02-28T01:28:13;3.87;;;1.97;;
18190;SDS011;47004;51.366;12.348;2023-02-28T01:30:15;4.80;;;2.23;;
18190;SDS011;47004;51.366;12.348;2023-02-28T01:32:17;3.10;;;1.97;;
18190;SDS011;47004;51.366;12.348;2023-02-28T01:34:19;4.70;;;2.30;;
18190;SDS011;47004;51.366;12.348;2023-02-28T01:36:22;3.83;;;2.20;;
18190;SDS011;47004;51.366;12.348;2023-02-28T01:38:25;5.40;;;2.50;;
18190;SDS011;47004;51.366;12.348;2023-02-28T01:40:27;4.07;;;2.30;;
18190;SDS011;47004;51.366;12.348;2023-02-28T01:42:30;4.40;;;2.03;;
18190;SDS011;47004;51.366;12.348;2023-02-28T01:46:58;3.33;;;2.00;;
18190;SDS011;47004;51.366;12.348;2023-02-28T01:49:02;3.53;;;1.73;;
18190;SDS011;47004;51.366;12.348;2023-02-28T01:51:08;3.73;;;2.00;;
18190;SDS011;47004;51.366;12.348;2023-02-28T01:53:14;4.00;;;1.90;;
18190;SDS011;47004;51.366;12.348;2023-02-28T01:55:19;3.50;;;2.00;;
18190;SDS011;47004;51.366;12.348;2023-02-28T01:57:24;5.47;;;2.20;;
18190;SDS011;47004;51.366;12.348;2023-02-28T01:59:31;4.20;;;1.87;;
18190;SDS011;47004;51.366;12.348;2023-02-28T02:01:37;4.30;;;2.17;;
18190;SDS011;47004;51.366;12.348;2023-02-28T02:03:39;4.57;;;1.90;;
18190;SDS011;47004;51.366;12.348;2023-02-28T02:05:41;3.10;;;1.77;;
18190;SDS011;47004;51.366;12.348;2023-02-28T02:07:48;4.17;;;2.37;;
18190;SDS011;47004;51.366;12.348;2023-02-28T02:09:59;5.30;;;2.53;;
18190;SDS011;47004;51.366;12.348;2023-02-28T02:12:03;3.83;;;2.00;;
18190;SDS011;47004;51.366;12.348;2023-02-28T02:14:21;3.93;;;1.97;;
18190;SDS011;47004;51.366;12.348;2023-02-28T02:16:53;4.87;;;2.20;;
18190;SDS011;47004;51.366;12.348;2023-02-28T02:19:04;3.97;;;2.03;;
18190;SDS011;47004;51.366;12.348;2023-02-28T02:21:26;3.77;;;2.27;;
18190;SDS011;47004;51.366;12.348;2023-02-28T02:26:58;5.23;;;2.50;;
18190;SDS011;47004;51.366;12.348;2023-02-28T02:29:25;4.50;;;2.33;;
18190;SDS011;47004;51.366;12.348;2023-02-28T02:31:48;4.50;;;2.13;;
18190;SDS011;47004;51.366;12.348;2023-02-28T02:34:07;5.80;;;2.23;;
18190;SDS011;47004;51.366;12.348;2023-02-28T02:36:27;5.80;;;2.40;;
18190;SDS011;47004;51.366;12.348;2023-02-28T02:38:32;5.30;;;2.50;;
18190;SDS011;47004;51.366;12.348;2023-02-28T02:40:38;6.23;;;2.20;;
18190;SDS011;47004;51.366;12.348;2023-02-28T02:42:45;4.43;;;2.37;;
18190;SDS011;47004;51.366;12.348;2023-02-28T02:44:54;4.83;;;2.07;;
18190;SDS011;47004;51.366;12.348;2023-02-28T02:47:01;6.50;;;2.40;;
18190;SDS011;47004;51.366;12.348;2023-02-28T02:49:13;3.83;;;2.30;;
18190;SDS011;47004;51.366;12.348;2023-02-28T02:51:18;4.40;;;2.13;;
18190;SDS011;47004;51.366;12.348;2023-02-28T02:53:24;4.83;;;2.33;;
18190;SDS011;47004;51.366;12.348;2023-02-28T02:55:29;4.73;;;2.50;;
18190;SDS011;47004;51.366;12.348;2023-02-28T02:57:35;5.77;;;2.30;;
18190;SDS011;47004;51.366;12.348;2023-02-28T02:59:41;4.57;;;2.20;;
18190;SDS011;47004;51.366;12.348;2023-02-28T03:01:44;5.53;;;2.30;;
18190;SDS011;47004;51.366;12.348;2023-02-28T03:03:46;4.53;;;2.20;;
18190;SDS011;47004;51.366;12.348;2023-02-28T03:05:50;5.57;;;2.30;;
18190;SDS011;47004;51.366;12.348;2023-02-28T03:07:52;7.93;;;2.80;;
18190;SDS011;47004;51.366;12.348;2023-02-28T03:09:54;6.57;;;2.47;;
18190;SDS011;47004;51.366;12.348;2023-02-28T03:11:57;5.10;;;2.20;;
18190;SDS011;47004;51.366;12.348;2023-02-28T03:14:10;3.23;;;1.97;;
18190;SDS011;47004;51.366;12.348;2023-02-28T03:16:28;3.37;;;2.13;;
18190;SDS011;47004;51.366;12.348;2023-02-28T03:19:11;6.57;;;2.60;;
18190;SDS011;47004;51.366;12.348;2023-02-28T03:21:25;5.80;;;2.50;;
18190;SDS011;47004;51.366;12.348;2023-02-28T03:23:35;4.40;;;2.30;;
18190;SDS011;47004;51.366;12.348;2023-02-28T03:25:46;3.43;;;2.23;;
18190;SDS011;47004;51.366;12.348;2023-02-28T03:27:59;3.37;;;2.10;;
18190;SDS011;47004;51.366;12.348;2023-02-28T03:30:09;5.60;;;2.33;;
18190;SDS011;47004;51.366;12.348;2023-02-28T03:32:18;6.23;;;2.50;;
18190;SDS011;47004;51.366;12.348;2023-02-28T03:34:26;4.60;;;2.00;;
18190;SDS011;47004;51.366;12.348;2023-02-28T03:36:35;4.93;;;2.20;;
18190;SDS011;47004;51.366;12.348;2023-02-28T03:38:44;5.77;;;2.63;;
18190;SDS011;47004;51.366;12.348;2023-02-28T03:40:50;5.43;;;2.43;;
18190;SDS011;47004;51.366;12.348;2023-02-28T03:42:59;4.47;;;2.40;;
18190;SDS011;47004;51.366;12.348;2023-02-28T03:45:04;6.93;;;2.50;;
18190;SDS011;47004;51.366;12.348;2023-02-28T03:47:12;5.17;;;2.30;;
18190;SDS011;47004;51.366;12.348;2023-02-28T03:49:18;5.77;;;2.87;;
18190;SDS011;47004;51.366;12.348;2023-02-28T03:51:24;4.10;;;2.50;;
18190;SDS011;47004;51.366;12.348;2023-02-28T03:53:30;5.63;;;2.87;;
18190;SDS011;47004;51.366;12.348;2023-02-28T03:55:37;5.03;;;2.40;;
18190;SDS011;47004;51.366;12.348;2023-02-28T03:57:43;6.10;;;2.73;;
18190;SDS011;47004;51.366;12.348;2023-02-28T03:59:56;3.67;;;2.30;;
18190;SDS011;47004;51.366;12.348;2023-02-28T04:02:01;3.97;;;2.53;;
18190;SDS011;47004;51.366;12.348;2023-02-28T04:04:03;5.23;;;2.93;;
18190;SDS011;47004;51.366;12.348;2023-02-28T04:06:07;6.10;;;2.50;;
18190;SDS011;47004;51.366;12.348;2023-02-28T04:08:14;5.43;;;2.97;;
18190;SDS011;47004;51.366;12.348;2023-02-28T04:10:17;5.40;;;2.63;;
18190;SDS011;47004;51.366;12.348;2023-02-28T04:12:19;5.80;;;2.97;;
18190;SDS011;47004;51.366;12.348;2023-02-28T04:14:23;7.00;;;2.43;;
18190;SDS011;47004;51.366;12.348;2023-02-28T04:16:25;5.23;;;2.77;;
18190;SDS011;47004;51.366;12.348;2023-02-28T04:18:29;4.67;;;2.60;;
18190;SDS011;47004;51.366;12.348;2023-02-28T04:20:31;5.37;;;2.50;;
18190;SDS011;47004;51.366;12.348;2023-02-28T04:22:33;5.07;;;2.67;;
18190;SDS011;47004;51.366;12.348;2023-02-28T04:24:35;5.00;;;3.00;;
18190;SDS011;47004;51.366;12.348;2023-02-28T04:26:38;5.80;;;2.87;;
18190;SDS011;47004;51.366;12.348;2023-02-28T04:28:41;6.60;;;2.80;;
18190;SDS011;47004;51.366;12.348;2023-02-28T04:30:42;7.97;;;2.80;;
18190;SDS011;47004;51.366;12.348;2023-02-28T04:32:44;6.13;;;2.77;;
18190;SDS011;47004;51.366;12.348;2023-02-28T04:34:46;6.80;;;2.70;;
18190;SDS011;47004;51.366;12.348;2023-02-28T04:36:48;5.37;;;2.87;;
18190;SDS011;47004;51.366;12.348;2023-02-28T04:38:50;6.93;;;3.00;;
18190;SDS011;47004;51.366;12.348;2023-02-28T04:40:52;5.67;;;2.70;;
18190;SDS011;47004;51.366;12.348;2023-02-28T04:42:55;5.70;;;2.87;;
18190;SDS011;47004;51.366;12.348;2023-02-28T04:44:57;5.80;;;2.53;;
18190;SDS011;47004;51.366;12.348;2023-02-28T04:46:59;4.67;;;2.70;;
18190;SDS011;47004;51.366;12.348;2023-02-28T04:49:04;5.50;;;3.13;;
18190;SDS011;47004;51.366;12.348;2023-02-28T04:51:07;6.00;;;2.97;;
18190;SDS011;47004;51.366;12.348;2023-02-28T04:53:11;6.17;;;2.60;;
18190;SDS011;47004;51.366;12.348;2023-02-28T04:55:13;4.07;;;2.50;;
18190;SDS011;47004;51.366;12.348;2023-02-28T04:57:15;6.23;;;2.63;;
18190;SDS011;47004;51.366;12.348;2023-02-28T04:59:18;4.73;;;2.70;;
18190;SDS011;47004;51.366;12.348;2023-02-28T05:01:22;5.17;;;2.60;;
18190;SDS011;47004;51.366;12.348;2023-02-28T05:03:25;6.60;;;2.80;;
18190;SDS011;47004;51.366;12.348;2023-02-28T05:05:27;8.70;;;3.00;;
18190;SDS011;47004;51.366;12.348;2023-02-28T05:07:29;6.13;;;2.73;;
18190;SDS011;47004;51.366;12.348;2023-02-28T05:09:31;5.73;;;2.80;;
18190;SDS011;47004;51.366;12.348;2023-02-28T05:11:34;5.40;;;2.73;;
18190;SDS011;47004;51.366;12.348;2023-02-28T05:13:37;5.80;;;2.87;;
18190;SDS011;47004;51.366;12.348;2023-02-28T05:15:40;4.27;;;2.53;;
18190;SDS011;47004;51.366;12.348;2023-02-28T05:17:42;5.60;;;2.70;;
18190;SDS011;47004;51.366;12.348;2023-02-28T05:19:45;5.43;;;2.83;;
18190;SDS011;47004;51.366;12.348;2023-02-28T05:21:51;4.27;;;2.43;;
18190;SDS011;47004;51.366;12.348;2023-02-28T05:23:55;5.80;;;2.70;;
18190;SDS011;47004;51.366;12.348;2023-02-28T05:25:58;5.47;;;3.00;;
18190;SDS011;47004;51.366;12.348;2023-02-28T05:28:00;5.63;;;3.20;;
18190;SDS011;47004;51.366;12.348;2023-02-28T05:30:02;6.77;;;2.90;;
18190;SDS011;47004;51.366;12.348;2023-02-28T05:32:09;6.73;;;3.60;;
18190;SDS011;47004;51.366;12.348;2023-02-28T05:34:11;7.83;;;3.33;;
18190;SDS011;47004;51.366;12.348;2023-02-28T05:36:15;7.47;;;3.20;;
18190;SDS011;47004;51.366;12.348;2023-02-28T05:38:17;6.40;;;3.10;;
18190;SDS011;47004;51.366;12.348;2023-02-28T05:40:19;5.43;;;3.03;;
18190;SDS011;47004;51.366;12.348;2023-02-28T05:42:21;6.33;;;3.37;;
18190;SDS011;47004;51.366;12.348;2023-02-28T05:44:26;6.73;;;3.13;;
18190;SDS011;47004;51.366;12.348;2023-02-28T05:46:28;6.77;;;3.37;;
18190;SDS011;47004;51.366;12.348;2023-02-28T05:48:34;7.07;;;3.13;;
18190;SDS011;47004;51.366;12.348;2023-02-28T05:50:37;6.97;;;3.33;;
18190;SDS011;47004;51.366;12.348;2023-02-28T05:52:39;5.90;;;3.43;;
18190;SDS011;47004;51.366;12.348;2023-02-28T05:54:41;6.57;;;3.67;;
18190;SDS011;47004;51.366;12.348;2023-02-28T05:56:43;8.53;;;3.93;;
18190;SDS011;47004;51.366;12.348;2023-02-28T05:58:45;6.53;;;3.70;;
18190;SDS011;47004;51.366;12.348;2023-02-28T06:00:48;9.03;;;3.93;;
18190;SDS011;47004;51.366;12.348;2023-02-28T06:02:50;7.63;;;3.77;;
18190;SDS011;47004;51.366;12.348;2023-02-28T06:04:57;9.03;;;4.33;;
18190;SDS011;47004;51.366;12.348;2023-02-28T06:06:59;12.03;;;5.07;;
18190;SDS011;47004;51.366;12.348;2023-02-28T06:09:02;9.53;;;4.23;;
18190;SDS011;47004;51.366;12.348;2023-02-28T06:11:04;9.23;;;4.57;;
18190;SDS011;47004;51.366;12.348;2023-02-28T06:13:07;8.10;;;3.90;;
18190;SDS011;47004;51.366;12.348;2023-02-28T06:15:11;9.17;;;3.70;;
18190;SDS011;47004;51.366;12.348;2023-02-28T06:17:14;9.20;;;4.27;;
18190;SDS011;47004;51.366;12.348;2023-02-28T06:19:16;7.97;;;4.17;;
18190;SDS011;47004;51.366;12.348;2023-02-28T06:21:23;6.63;;;3.27;;
18190;SDS011;47004;51.366;12.348;2023-02-28T06:23:25;7.57;;;3.97;;
18190;SDS011;47004;51.366;12.348;2023-02-28T06:25:32;7.77;;;3.67;;
18190;SDS011;47004;51.366;12.348;2023-02-28T06:27:33;7.33;;;3.13;;
18190;SDS011;47004;51.366;12.348;2023-02-28T06:29:35;7.63;;;3.60;;
18190;SDS011;47004;51.366;12.348;2023-02-28T06:31:39;6.60;;;3.23;;
18190;SDS011;47004;51.366;12.348;2023-02-28T06:33:41;6.23;;;3.50;;
18190;SDS011;47004;51.366;12.348;2023-02-28T06:35:49;7.70;;;3.53;;
18190;SDS011;47004;51.366;12.348;2023-02-28T06:37:53;6.83;;;3.37;;
18190;SDS011;47004;51.366;12.348;2023-02-28T06:39:57;7.73;;;3.83;;
18190;SDS011;47004;51.366;12.348;2023-02-28T06:42:03;8.77;;;3.70;;
18190;SDS011;47004;51.366;12.348;2023-02-28T06:44:05;6.90;;;3.33;;
18190;SDS011;47004;51.366;12.348;2023-02-28T06:46:15;6.70;;;3.07;;
18190;SDS011;47004;51.366;12.348;2023-02-28T06:48:17;11.03;;;3.90;;
18190;SDS011;47004;51.366;12.348;2023-02-28T06:50:19;9.93;;;3.80;;
18190;SDS011;47004;51.366;12.348;2023-02-28T06:52:21;10.27;;;3.73;;
18190;SDS011;47004;51.366;12.348;2023-02-28T06:54:24;7.47;;;3.80;;
18190;SDS011;47004;51.366;12.348;2023-02-28T06:56:27;7.93;;;3.87;;
18190;SDS011;47004;51.366;12.348;2023-02-28T06:58:29;8.00;;;3.53;;
18190;SDS011;47004;51.366;12.348;2023-02-28T07:00:31;7.80;;;3.87;;
18190;SDS011;47004;51.366;12.348;2023-02-28T07:02:34;6.57;;;3.83;;
18190;SDS011;47004;51.366;12.348;2023-02-28T07:04:36;11.77;;;4.50;;
18190;SDS011;47004;51.366;12.348;2023-02-28T07:06:40;7.40;;;3.87;;
18190;SDS011;47004;51.366;12.348;2023-02-28T07:08:44;7.40;;;3.73;;
18190;SDS011;47004;51.366;12.348;2023-02-28T07:10:52;11.07;;;3.73;;
18190;SDS011;47004;51.366;12.348;2023-02-28T07:12:55;8.40;;;3.80;;
18190;SDS011;47004;51.366;12.348;2023-02-28T07:14:57;8.07;;;3.73;;
18190;SDS011;47004;51.366;12.348;2023-02-28T07:17:00;7.13;;;3.60;;
18190;SDS011;47004;51.366;12.348;2023-02-28T07:19:04;11.50;;;4.50;;
18190;SDS011;47004;51.366;12.348;2023-02-28T07:21:09;8.87;;;4.43;;
18190;SDS011;47004;51.366;12.348;2023-02-28T07:23:11;9.07;;;3.90;;
18190;SDS011;47004;51.366;12.348;2023-02-28T07:25:13;12.57;;;3.97;;
18190;SDS011;47004;51.366;12.348;2023-02-28T07:27:16;9.07;;;3.33;;
18190;SDS011;47004;51.366;12.348;2023-02-28T07:29:23;10.40;;;4.40;;
18190;SDS011;47004;51.366;12.348;2023-02-28T07:31:25;9.77;;;4.63;;
18190;SDS011;47004;51.366;12.348;2023-02-28T07:33:28;8.23;;;3.70;;
18190;SDS011;47004;51.366;12.348;2023-02-28T07:35:30;7.97;;;3.90;;
18190;SDS011;47004;51.366;12.348;2023-02-28T07:37:32;7.00;;;3.80;;
18190;SDS011;47004;51.366;12.348;2023-02-28T07:39:43;7.67;;;3.77;;
18190;SDS011;47004;51.366;12.348;2023-02-28T07:41:47;11.63;;;4.20;;
18190;SDS011;47004;51.366;12.348;2023-02-28T07:43:52;7.73;;;4.07;;
18190;SDS011;47004;51.366;12.348;2023-02-28T07:45:55;9.50;;;3.97;;
18190;SDS011;47004;51.366;12.348;2023-02-28T07:48:02;6.90;;;3.70;;
18190;SDS011;47004;51.366;12.348;2023-02-28T07:50:05;7.27;;;3.73;;
18190;SDS011;47004;51.366;12.348;2023-02-28T07:52:07;10.07;;;4.53;;
18190;SDS011;47004;51.366;12.348;2023-02-28T07:54:12;10.57;;;4.23;;
18190;SDS011;47004;51.366;12.348;2023-02-28T07:56:14;8.87;;;4.30;;
18190;SDS011;47004;51.366;12.348;2023-02-28T07:58:17;11.10;;;4.37;;
18190;SDS011;47004;51.366;12.348;2023-02-28T08:00:21;9.53;;;4.07;;
18190;SDS011;47004;51.366;12.348;2023-02-28T08:02:26;12.50;;;4.40;;
18190;SDS011;47004;51.366;12.348;2023-02-28T08:04:31;9.67;;;4.47;;
18190;SDS011;47004;51.366;12.348;2023-02-28T08:06:34;7.20;;;4.20;;
18190;SDS011;47004;51.366;12.348;2023-02-28T08:08:36;7.03;;;3.27;;
18190;SDS011;47004;51.366;12.348;2023-02-28T08:10:45;12.53;;;4.27;;
18190;SDS011;47004;51.366;12.348;2023-02-28T08:12:47;8.17;;;3.77;;
18190;SDS011;47004;51.366;12.348;2023-02-28T08:14:51;7.97;;;3.70;;
18190;SDS011;47004;51.366;12.348;2023-02-28T08:17:00;7.63;;;3.47;;
18190;SDS011;47004;51.366;12.348;2023-02-28T08:19:05;8.77;;;3.77;;
18190;SDS011;47004;51.366;12.348;2023-02-28T08:21:10;8.63;;;3.53;;
18190;SDS011;47004;51.366;12.348;2023-02-28T08:23:18;8.83;;;3.67;;
18190;SDS011;47004;51.366;12.348;2023-02-28T08:25:20;6.33;;;3.13;;
18190;SDS011;47004;51.366;12.348;2023-02-28T08:27:28;9.03;;;3.67;;
18190;SDS011;47004;51.366;12.348;2023-02-28T08:29:36;7.37;;;3.57;;
18190;SDS011;47004;51.366;12.348;2023-02-28T08:31:42;9.20;;;3.90;;
18190;SDS011;47004;51.366;12.348;2023-02-28T08:33:51;8.57;;;4.33;;
18190;SDS011;47004;51.366;12.348;2023-02-28T08:35:59;7.67;;;4.00;;
18190;SDS011;47004;51.366;12.348;2023-02-28T08:38:03;7.90;;;4.20;;
18190;SDS011;47004;51.366;12.348;2023-02-28T08:40:07;8.73;;;3.63;;
18190;SDS011;47004;51.366;12.348;2023-02-28T08:42:09;10.73;;;4.47;;
18190;SDS011;47004;51.366;12.348;2023-02-28T08:44:11;7.50;;;3.43;;
18190;SDS011;47004;51.366;12.348;2023-02-28T08:46:14;7.80;;;3.90;;
18190;SDS011;47004;51.366;12.348;2023-02-28T08:48:15;8.93;;;4.13;;
18190;SDS011;47004;51.366;12.348;2023-02-28T08:50:19;7.83;;;3.67;;
18190;SDS011;47004;51.366;12.348;2023-02-28T08:52:29;9.93;;;3.60;;
18190;SDS011;47004;51.366;12.348;2023-02-28T08:54:31;8.23;;;3.87;;
18190;SDS011;47004;51.366;12.348;2023-02-28T08:56:34;6.43;;;3.03;;
18190;SDS011;47004;51.366;12.348;2023-02-28T08:58:36;8.33;;;3.30;;
18190;SDS011;47004;51.366;12.348;2023-02-28T09:00:40;5.87;;;3.13;;
18190;SDS011;47004;51.366;12.348;2023-02-28T09:02:42;6.90;;;3.00;;
18190;SDS011;47004;51.366;12.348;2023-02-28T09:04:44;6.13;;;3.13;;
18190;SDS011;47004;51.366;12.348;2023-02-28T09:06:53;8.70;;;3.17;;
18190;SDS011;47004;51.366;12.348;2023-02-28T09:08:56;7.07;;;3.20;;
18190;SDS011;47004;51.366;12.348;2023-02-28T09:11:01;7.53;;;3.23;;
18190;SDS011;47004;51.366;12.348;2023-02-28T09:13:03;6.23;;;3.20;;
18190;SDS011;47004;51.366;12.348;2023-02-28T09:15:05;10.63;;;3.73;;
18190;SDS011;47004;51.366;12.348;2023-02-28T09:17:09;7.33;;;3.30;;
18190;SDS011;47004;51.366;12.348;2023-02-28T09:19:11;6.13;;;3.40;;
18190;SDS011;47004;51.366;12.348;2023-02-28T09:21:14;6.53;;;3.20;;
18190;SDS011;47004;51.366;12.348;2023-02-28T09:23:19;10.10;;;3.43;;
18190;SDS011;47004;51.366;12.348;2023-02-28T09:25:21;8.10;;;3.20;;
18190;SDS011;47004;51.366;12.348;2023-02-28T09:27:23;5.70;;;3.20;;
18190;SDS011;47004;51.366;12.348;2023-02-28T09:29:25;8.10;;;3.30;;
18190;SDS011;47004;51.366;12.348;2023-02-28T09:31:27;5.80;;;3.40;;
18190;SDS011;47004;51.366;12.348;2023-02-28T09:33:29;5.37;;;3.03;;
18190;SDS011;47004;51.366;12.348;2023-02-28T09:35:31;6.97;;;3.20;;
18190;SDS011;47004;51.366;12.348;2023-02-28T09:37:33;7.23;;;3.60;;
18190;SDS011;47004;51.366;12.348;2023-02-28T09:39:37;6.50;;;2.80;;
18190;SDS011;47004;51.366;12.348;2023-02-28T09:41:39;4.50;;;3.07;;
18190;SDS011;47004;51.366;12.348;2023-02-28T09:43:49;6.07;;;3.40;;
18190;SDS011;47004;51.366;12.348;2023-02-28T09:45:55;7.03;;;3.63;;
18190;SDS011;47004;51.366;12.348;2023-02-28T09:48:02;6.57;;;3.13;;
18190;SDS011;47004;51.366;12.348;2023-02-28T09:52:35;4.90;;;2.90;;
18190;SDS011;47004;51.366;12.348;2023-02-28T09:54:40;10.97;;;3.30;;
18190;SDS011;47004;51.366;12.348;2023-02-28T09:56:44;6.10;;;2.90;;
18190;SDS011;47004;51.366;12.348;2023-02-28T09:58:53;6.53;;;3.00;;
18190;SDS011;47004;51.366;12.348;2023-02-28T10:01:00;5.57;;;2.90;;
18190;SDS011;47004;51.366;12.348;2023-02-28T10:03:10;6.03;;;3.27;;
18190;SDS011;47004;51.366;12.348;2023-02-28T10:05:37;5.70;;;3.07;;
18190;SDS011;47004;51.366;12.348;2023-02-28T10:07:47;7.63;;;3.33;;
18190;SDS011;47004;51.366;12.348;2023-02-28T10:10:01;10.93;;;3.40;;
18190;SDS011;47004;51.366;12.348;2023-02-28T10:12:08;6.63;;;3.37;;
18190;SDS011;47004;51.366;12.348;2023-02-28T10:14:15;6.10;;;2.90;;
18190;SDS011;47004;51.366;12.348;2023-02-28T10:16:21;7.43;;;3.47;;
18190;SDS011;47004;51.366;12.348;2023-02-28T10:18:27;7.43;;;3.77;;
18190;SDS011;47004;51.366;12.348;2023-02-28T10:20:37;7.07;;;3.63;;
18190;SDS011;47004;51.366;12.348;2023-02-28T10:22:43;5.80;;;3.20;;
18190;SDS011;47004;51.366;12.348;2023-02-28T10:24:56;5.60;;;3.00;;
18190;SDS011;47004;51.366;12.348;2023-02-28T10:27:06;6.77;;;3.67;;
18190;SDS011;47004;51.366;12.348;2023-02-28T10:29:15;9.70;;;3.73;;
18190;SDS011;47004;51.366;12.348;2023-02-28T10:31:18;8.00;;;3.73;;
18190;SDS011;47004;51.366;12.348;2023-02-28T10:33:24;5.37;;;3.33;;
18190;SDS011;47004;51.366;12.348;2023-02-28T10:35:29;5.47;;;3.30;;
18190;SDS011;47004;51.366;12.348;2023-02-28T10:37:33;16.03;;;4.97;;
18190;SDS011;47004;51.366;12.348;2023-02-28T10:39:39;12.10;;;4.50;;
18190;SDS011;47004;51.366;12.348;2023-02-28T10:41:44;11.73;;;4.47;;
18190;SDS011;47004;51.366;12.348;2023-02-28T10:43:51;8.60;;;3.87;;
18190;SDS011;47004;51.366;12.348;2023-02-28T10:45:55;8.77;;;3.30;;
18190;SDS011;47004;51.366;12.348;2023-02-28T10:48:00;10.87;;;4.30;;
18190;SDS011;47004;51.366;12.348;2023-02-28T10:50:04;6.83;;;3.90;;
18190;SDS011;47004;51.366;12.348;2023-02-28T10:52:08;5.87;;;3.63;;
18190;SDS011;47004;51.366;12.348;2023-02-28T10:54:14;7.63;;;3.80;;
18190;SDS011;47004;51.366;12.348;2023-02-28T10:56:18;9.10;;;3.53;;
18190;SDS011;47004;51.366;12.348;2023-02-28T10:58:22;8.83;;;4.13;;
18190;SDS011;47004;51.366;12.348;2023-02-28T11:00:31;9.37;;;4.20;;
18190;SDS011;47004;51.366;12.348;2023-02-28T11:02:36;11.47;;;4.20;;
18190;SDS011;47004;51.366;12.348;2023-02-28T11:04:41;7.17;;;3.60;;
18190;SDS011;47004;51.366;12.348;2023-02-28T11:06:43;8.20;;;4.00;;
18190;SDS011;47004;51.366;12.348;2023-02-28T11:08:49;9.60;;;4.07;;
18190;SDS011;47004;51.366;12.348;2023-02-28T11:11:00;8.73;;;4.53;;
18190;SDS011;47004;51.366;12.348;2023-02-28T11:13:27;7.73;;;3.90;;
18190;SDS011;47004;51.366;12.348;2023-02-28T11:15:38;7.07;;;4.43;;
18190;SDS011;47004;51.366;12.348;2023-02-28T11:17:40;9.37;;;3.93;;
18190;SDS011;47004;51.366;12.348;2023-02-28T11:19:44;7.63;;;4.03;;
18190;SDS011;47004;51.366;12.348;2023-02-28T11:21:51;5.27;;;3.40;;
18190;SDS011;47004;51.366;12.348;2023-02-28T11:23:58;7.30;;;3.90;;
18190;SDS011;47004;51.366;12.348;2023-02-28T11:26:07;6.93;;;3.80;;
18190;SDS011;47004;51.366;12.348;2023-02-28T11:28:22;7.27;;;4.00;;
18190;SDS011;47004;51.366;12.348;2023-02-28T11:30:29;7.80;;;3.67;;
18190;SDS011;47004;51.366;12.348;2023-02-28T11:32:37;8.20;;;4.33;;
18190;SDS011;47004;51.366;12.348;2023-02-28T11:35:00;8.10;;;3.97;;
18190;SDS011;47004;51.366;12.348;2023-02-28T11:37:03;7.47;;;4.40;;
18190;SDS011;47004;51.366;12.348;2023-02-28T11:39:08;7.27;;;4.13;;
18190;SDS011;47004;51.366;12.348;2023-02-28T11:41:29;7.37;;;3.63;;
18190;SDS011;47004;51.366;12.348;2023-02-28T11:43:48;7.80;;;4.30;;
18190;SDS011;47004;51.366;12.348;2023-02-28T11:46:09;9.27;;;4.37;;
18190;SDS011;47004;51.366;12.348;2023-02-28T11:48:22;11.70;;;3.73;;
18190;SDS011;47004;51.366;12.348;2023-02-28T11:50:37;6.60;;;3.97;;
18190;SDS011;47004;51.366;12.348;2023-02-28T11:52:48;7.90;;;4.10;;
18190;SDS011;47004;51.366;12.348;2023-02-28T11:54:59;6.90;;;4.13;;
18190;SDS011;47004;51.366;12.348;2023-02-28T11:57:15;7.73;;;4.07;;
18190;SDS011;47004;51.366;12.348;2023-02-28T11:59:34;10.47;;;3.83;;
18190;SDS011;47004;51.366;12.348;2023-02-28T12:02:02;6.33;;;3.87;;
18190;SDS011;47004;51.366;12.348;2023-02-28T12:04:21;8.43;;;4.30;;
18190;SDS011;47004;51.366;12.348;2023-02-28T12:06:30;7.80;;;4.10;;
18190;SDS011;47004;51.366;12.348;2023-02-28T12:08:47;9.17;;;4.70;;
18190;SDS011;47004;51.366;12.348;2023-02-28T12:11:00;7.27;;;4.13;;
18190;SDS011;47004;51.366;12.348;2023-02-28T12:13:11;7.27;;;4.30;;
18190;SDS011;47004;51.366;12.348;2023-02-28T12:15:35;8.77;;;4.20;;
18190;SDS011;47004;51.366;12.348;2023-02-28T12:17:48;7.37;;;4.37;;
18190;SDS011;47004;51.366;12.348;2023-02-28T12:20:05;8.90;;;4.40;;
18190;SDS011;47004;51.366;12.348;2023-02-28T12:22:28;7.87;;;4.80;;
18190;SDS011;47004;51.366;12.348;2023-02-28T12:24:39;9.10;;;4.37;;
18190;SDS011;47004;51.366;12.348;2023-02-28T12:27:00;10.37;;;4.43;;
18190;SDS011;47004;51.366;12.348;2023-02-28T12:29:10;10.90;;;5.07;;
18190;SDS011;47004;51.366;12.348;2023-02-28T12:31:18;9.60;;;4.73;;
18190;SDS011;47004;51.366;12.348;2023-02-28T12:33:24;9.67;;;4.03;;